Pilot Mound, Minnesota
Current Conditions -  °F | °C
As of 6:15 PM on Wednesday 22 Oct 2014 (Local Time) from KFKA Reporting Station
Clear Clear  
Wind Chill: 53°   Ceiling: Unl
Heat Index: 53°   Visibility: 10mi
Dew Point: 38°   Wind: 12mph
Humidity: 55%   Direction: 150°SSE
Pressure: 30.14"   Gusts: NA
Location:  43.8233°N, 92.1103°W
Report Text: KFKA 222315Z AUTO 15010KT 10SM CLR 12/03 A3014 RMK AO2 T01180031
Loading
Personal Weather Stations






























Interactive Weather Map
Tropical Storm Tracking
New forecast layout! Learn more

10-Day Weather Forecast

Advertisements
Track Severe Weather on mobile